sensor_id;sensor_type;location;lat;lon;timestamp;P1;durP1;ratioP1;P2;durP2;ratioP2
12884;SDS011;6510;51.362;7.370;2023-07-08T00:01:08;0.10;;;0.10;;
12884;SDS011;6510;51.362;7.370;2023-07-08T00:03:38;0.10;;;0.10;;
12884;SDS011;6510;51.362;7.370;2023-07-08T00:06:04;0.10;;;0.10;;
12884;SDS011;6510;51.362;7.370;2023-07-08T00:08:29;0.10;;;0.10;;
12884;SDS011;6510;51.362;7.370;2023-07-08T00:10:55;0.10;;;0.10;;
12884;SDS011;6510;51.362;7.370;2023-07-08T00:13:21;0.20;;;0.20;;
12884;SDS011;6510;51.362;7.370;2023-07-08T00:15:46;0.20;;;0.20;;
12884;SDS011;6510;51.362;7.370;2023-07-08T00:18:14;0.10;;;0.10;;
12884;SDS011;6510;51.362;7.370;2023-07-08T00:20:42;0.10;;;0.10;;
12884;SDS011;6510;51.362;7.370;2023-07-08T00:23:10;0.10;;;0.10;;
12884;SDS011;6510;51.362;7.370;2023-07-08T00:25:36;0.10;;;0.10;;
12884;SDS011;6510;51.362;7.370;2023-07-08T00:28:04;0.10;;;0.10;;
12884;SDS011;6510;51.362;7.370;2023-07-08T00:30:38;0.10;;;0.10;;
12884;SDS011;6510;51.362;7.370;2023-07-08T00:33:05;0.10;;;0.10;;
12884;SDS011;6510;51.362;7.370;2023-07-08T00:35:38;0.10;;;0.10;;
12884;SDS011;6510;51.362;7.370;2023-07-08T00:40:48;0.10;;;0.10;;
12884;SDS011;6510;51.362;7.370;2023-07-08T00:43:28;0.10;;;0.10;;
12884;SDS011;6510;51.362;7.370;2023-07-08T00:48:52;0.10;;;0.10;;
12884;SDS011;6510;51.362;7.370;2023-07-08T00:51:22;0.10;;;0.10;;
12884;SDS011;6510;51.362;7.370;2023-07-08T00:53:49;0.10;;;0.10;;
12884;SDS011;6510;51.362;7.370;2023-07-08T00:59:04;0.10;;;0.10;;
12884;SDS011;6510;51.362;7.370;2023-07-08T01:01:37;0.10;;;0.10;;
12884;SDS011;6510;51.362;7.370;2023-07-08T01:04:07;0.00;;;0.00;;
12884;SDS011;6510;51.362;7.370;2023-07-08T01:06:38;0.10;;;0.10;;
12884;SDS011;6510;51.362;7.370;2023-07-08T01:09:07;0.10;;;0.10;;
12884;SDS011;6510;51.362;7.370;2023-07-08T01:11:36;0.00;;;0.00;;
12884;SDS011;6510;51.362;7.370;2023-07-08T01:14:04;0.05;;;0.05;;
12884;SDS011;6510;51.362;7.370;2023-07-08T01:16:31;0.08;;;0.08;;
12884;SDS011;6510;51.362;7.370;2023-07-08T01:18:59;0.10;;;0.10;;
12884;SDS011;6510;51.362;7.370;2023-07-08T01:21:33;0.10;;;0.10;;
12884;SDS011;6510;51.362;7.370;2023-07-08T01:24:06;0.08;;;0.08;;
12884;SDS011;6510;51.362;7.370;2023-07-08T01:26:35;0.10;;;0.10;;
12884;SDS011;6510;51.362;7.370;2023-07-08T01:29:05;0.10;;;0.10;;
12884;SDS011;6510;51.362;7.370;2023-07-08T01:31:32;0.05;;;0.05;;
12884;SDS011;6510;51.362;7.370;2023-07-08T01:33:58;0.10;;;0.10;;
12884;SDS011;6510;51.362;7.370;2023-07-08T01:36:24;0.10;;;0.10;;
12884;SDS011;6510;51.362;7.370;2023-07-08T01:38:54;0.10;;;0.10;;
12884;SDS011;6510;51.362;7.370;2023-07-08T01:41:20;0.10;;;0.10;;
12884;SDS011;6510;51.362;7.370;2023-07-08T01:43:46;0.10;;;0.10;;
12884;SDS011;6510;51.362;7.370;2023-07-08T01:46:13;0.15;;;0.15;;
12884;SDS011;6510;51.362;7.370;2023-07-08T01:48:45;0.10;;;0.10;;
12884;SDS011;6510;51.362;7.370;2023-07-08T01:51:16;0.10;;;0.10;;
12884;SDS011;6510;51.362;7.370;2023-07-08T01:53:43;0.10;;;0.10;;
12884;SDS011;6510;51.362;7.370;2023-07-08T01:56:09;0.10;;;0.10;;
12884;SDS011;6510;51.362;7.370;2023-07-08T01:58:36;0.10;;;0.10;;
12884;SDS011;6510;51.362;7.370;2023-07-08T02:01:02;0.10;;;0.10;;
12884;SDS011;6510;51.362;7.370;2023-07-08T02:03:28;0.10;;;0.10;;
12884;SDS011;6510;51.362;7.370;2023-07-08T02:05:54;0.10;;;0.10;;
12884;SDS011;6510;51.362;7.370;2023-07-08T02:08:20;0.10;;;0.10;;
12884;SDS011;6510;51.362;7.370;2023-07-08T02:10:50;0.10;;;0.10;;
12884;SDS011;6510;51.362;7.370;2023-07-08T02:13:18;0.10;;;0.10;;
12884;SDS011;6510;51.362;7.370;2023-07-08T02:15:44;0.00;;;0.00;;
12884;SDS011;6510;51.362;7.370;2023-07-08T02:18:10;0.00;;;0.00;;
12884;SDS011;6510;51.362;7.370;2023-07-08T02:20:36;0.10;;;0.10;;
12884;SDS011;6510;51.362;7.370;2023-07-08T02:23:01;0.10;;;0.10;;
12884;SDS011;6510;51.362;7.370;2023-07-08T02:25:27;0.10;;;0.10;;
12884;SDS011;6510;51.362;7.370;2023-07-08T02:27:53;0.10;;;0.10;;
12884;SDS011;6510;51.362;7.370;2023-07-08T02:30:25;0.10;;;0.10;;
12884;SDS011;6510;51.362;7.370;2023-07-08T02:32:52;0.10;;;0.10;;
12884;SDS011;6510;51.362;7.370;2023-07-08T02:35:25;0.10;;;0.10;;
12884;SDS011;6510;51.362;7.370;2023-07-08T02:37:53;0.20;;;0.20;;
12884;SDS011;6510;51.362;7.370;2023-07-08T02:40:19;0.10;;;0.10;;
12884;SDS011;6510;51.362;7.370;2023-07-08T02:42:46;0.10;;;0.10;;
12884;SDS011;6510;51.362;7.370;2023-07-08T02:45:12;0.10;;;0.10;;
12884;SDS011;6510;51.362;7.370;2023-07-08T02:47:38;0.10;;;0.10;;
12884;SDS011;6510;51.362;7.370;2023-07-08T02:50:04;0.00;;;0.00;;
12884;SDS011;6510;51.362;7.370;2023-07-08T02:52:30;0.00;;;0.00;;
12884;SDS011;6510;51.362;7.370;2023-07-08T02:54:56;0.10;;;0.10;;
12884;SDS011;6510;51.362;7.370;2023-07-08T02:57:21;0.10;;;0.10;;
12884;SDS011;6510;51.362;7.370;2023-07-08T02:59:47;0.10;;;0.10;;
12884;SDS011;6510;51.362;7.370;2023-07-08T03:02:12;0.10;;;0.10;;
12884;SDS011;6510;51.362;7.370;2023-07-08T03:04:39;0.03;;;0.03;;
12884;SDS011;6510;51.362;7.370;2023-07-08T03:07:05;0.00;;;0.00;;
12884;SDS011;6510;51.362;7.370;2023-07-08T03:09:36;0.10;;;0.10;;
12884;SDS011;6510;51.362;7.370;2023-07-08T03:12:03;0.10;;;0.10;;
12884;SDS011;6510;51.362;7.370;2023-07-08T03:14:28;0.00;;;0.00;;
12884;SDS011;6510;51.362;7.370;2023-07-08T03:16:54;0.00;;;0.00;;
12884;SDS011;6510;51.362;7.370;2023-07-08T03:19:20;0.10;;;0.10;;
12884;SDS011;6510;51.362;7.370;2023-07-08T03:21:45;0.00;;;0.00;;
12884;SDS011;6510;51.362;7.370;2023-07-08T03:24:11;0.10;;;0.10;;
12884;SDS011;6510;51.362;7.370;2023-07-08T03:26:38;0.10;;;0.10;;
12884;SDS011;6510;51.362;7.370;2023-07-08T03:29:03;0.10;;;0.10;;
12884;SDS011;6510;51.362;7.370;2023-07-08T03:31:29;0.08;;;0.08;;
12884;SDS011;6510;51.362;7.370;2023-07-08T03:33:54;0.10;;;0.10;;
12884;SDS011;6510;51.362;7.370;2023-07-08T03:36:20;0.10;;;0.10;;
12884;SDS011;6510;51.362;7.370;2023-07-08T03:38:50;0.10;;;0.10;;
12884;SDS011;6510;51.362;7.370;2023-07-08T03:41:17;0.00;;;0.00;;
12884;SDS011;6510;51.362;7.370;2023-07-08T03:43:43;0.10;;;0.10;;
12884;SDS011;6510;51.362;7.370;2023-07-08T03:46:11;0.00;;;0.00;;
12884;SDS011;6510;51.362;7.370;2023-07-08T03:48:39;0.10;;;0.10;;
12884;SDS011;6510;51.362;7.370;2023-07-08T03:51:08;0.10;;;0.10;;
12884;SDS011;6510;51.362;7.370;2023-07-08T03:53:40;0.10;;;0.10;;
12884;SDS011;6510;51.362;7.370;2023-07-08T03:56:05;0.10;;;0.10;;
12884;SDS011;6510;51.362;7.370;2023-07-08T03:58:33;0.00;;;0.00;;
12884;SDS011;6510;51.362;7.370;2023-07-08T04:00:58;0.05;;;0.05;;
12884;SDS011;6510;51.362;7.370;2023-07-08T04:03:24;0.10;;;0.10;;
12884;SDS011;6510;51.362;7.370;2023-07-08T04:05:49;0.10;;;0.10;;
12884;SDS011;6510;51.362;7.370;2023-07-08T04:08:15;0.10;;;0.10;;
12884;SDS011;6510;51.362;7.370;2023-07-08T04:10:43;0.00;;;0.00;;
12884;SDS011;6510;51.362;7.370;2023-07-08T04:13:08;0.10;;;0.10;;
12884;SDS011;6510;51.362;7.370;2023-07-08T04:15:34;0.10;;;0.10;;
12884;SDS011;6510;51.362;7.370;2023-07-08T04:17:59;0.00;;;0.00;;
12884;SDS011;6510;51.362;7.370;2023-07-08T04:20:25;0.10;;;0.10;;
12884;SDS011;6510;51.362;7.370;2023-07-08T04:22:51;0.10;;;0.10;;
12884;SDS011;6510;51.362;7.370;2023-07-08T04:25:17;0.00;;;0.00;;
12884;SDS011;6510;51.362;7.370;2023-07-08T04:27:43;0.10;;;0.10;;
12884;SDS011;6510;51.362;7.370;2023-07-08T04:30:14;0.10;;;0.10;;
12884;SDS011;6510;51.362;7.370;2023-07-08T04:32:46;0.08;;;0.08;;
12884;SDS011;6510;51.362;7.370;2023-07-08T04:35:12;0.10;;;0.10;;
12884;SDS011;6510;51.362;7.370;2023-07-08T04:37:37;0.10;;;0.10;;
12884;SDS011;6510;51.362;7.370;2023-07-08T04:40:03;0.10;;;0.10;;
12884;SDS011;6510;51.362;7.370;2023-07-08T04:42:30;0.00;;;0.00;;
12884;SDS011;6510;51.362;7.370;2023-07-08T04:44:55;0.00;;;0.00;;
12884;SDS011;6510;51.362;7.370;2023-07-08T04:47:21;0.00;;;0.00;;
12884;SDS011;6510;51.362;7.370;2023-07-08T04:49:46;0.03;;;0.03;;
12884;SDS011;6510;51.362;7.370;2023-07-08T04:52:12;0.10;;;0.10;;
12884;SDS011;6510;51.362;7.370;2023-07-08T04:54:38;0.10;;;0.10;;
12884;SDS011;6510;51.362;7.370;2023-07-08T04:57:03;0.10;;;0.10;;
12884;SDS011;6510;51.362;7.370;2023-07-08T04:59:29;0.10;;;0.10;;
12884;SDS011;6510;51.362;7.370;2023-07-08T05:01:59;0.10;;;0.10;;
12884;SDS011;6510;51.362;7.370;2023-07-08T05:04:25;0.10;;;0.10;;
12884;SDS011;6510;51.362;7.370;2023-07-08T05:06:50;0.08;;;0.08;;
12884;SDS011;6510;51.362;7.370;2023-07-08T05:09:17;0.17;;;0.17;;
12884;SDS011;6510;51.362;7.370;2023-07-08T05:11:42;0.10;;;0.10;;
12884;SDS011;6510;51.362;7.370;2023-07-08T05:14:10;0.10;;;0.10;;
12884;SDS011;6510;51.362;7.370;2023-07-08T05:16:37;0.10;;;0.10;;
12884;SDS011;6510;51.362;7.370;2023-07-08T05:19:03;0.20;;;0.20;;
12884;SDS011;6510;51.362;7.370;2023-07-08T05:21:29;0.20;;;0.20;;
12884;SDS011;6510;51.362;7.370;2023-07-08T05:23:58;0.20;;;0.20;;
12884;SDS011;6510;51.362;7.370;2023-07-08T05:26:24;0.20;;;0.20;;
12884;SDS011;6510;51.362;7.370;2023-07-08T05:28:50;0.40;;;0.40;;
12884;SDS011;6510;51.362;7.370;2023-07-08T05:31:15;0.30;;;0.30;;
12884;SDS011;6510;51.362;7.370;2023-07-08T05:33:41;0.30;;;0.30;;
12884;SDS011;6510;51.362;7.370;2023-07-08T05:36:07;0.40;;;0.40;;
12884;SDS011;6510;51.362;7.370;2023-07-08T05:38:32;0.40;;;0.40;;
12884;SDS011;6510;51.362;7.370;2023-07-08T05:40:58;0.30;;;0.30;;
12884;SDS011;6510;51.362;7.370;2023-07-08T05:43:24;0.45;;;0.45;;
12884;SDS011;6510;51.362;7.370;2023-07-08T05:45:50;0.40;;;0.40;;
12884;SDS011;6510;51.362;7.370;2023-07-08T05:48:16;0.43;;;0.43;;
12884;SDS011;6510;51.362;7.370;2023-07-08T05:50:42;0.35;;;0.35;;
12884;SDS011;6510;51.362;7.370;2023-07-08T05:53:10;0.45;;;0.45;;
12884;SDS011;6510;51.362;7.370;2023-07-08T05:55:35;0.32;;;0.32;;
12884;SDS011;6510;51.362;7.370;2023-07-08T05:58:01;0.45;;;0.45;;
12884;SDS011;6510;51.362;7.370;2023-07-08T06:00:27;0.50;;;0.50;;
12884;SDS011;6510;51.362;7.370;2023-07-08T06:02:53;0.50;;;0.50;;
12884;SDS011;6510;51.362;7.370;2023-07-08T06:05:18;0.50;;;0.50;;
12884;SDS011;6510;51.362;7.370;2023-07-08T06:07:44;0.50;;;0.50;;
12884;SDS011;6510;51.362;7.370;2023-07-08T06:10:09;0.50;;;0.50;;
12884;SDS011;6510;51.362;7.370;2023-07-08T06:12:35;0.60;;;0.60;;
12884;SDS011;6510;51.362;7.370;2023-07-08T06:15:01;0.52;;;0.52;;
12884;SDS011;6510;51.362;7.370;2023-07-08T06:17:27;0.40;;;0.40;;
12884;SDS011;6510;51.362;7.370;2023-07-08T06:19:52;0.40;;;0.40;;
12884;SDS011;6510;51.362;7.370;2023-07-08T06:22:18;0.50;;;0.50;;
12884;SDS011;6510;51.362;7.370;2023-07-08T06:24:43;0.47;;;0.47;;
12884;SDS011;6510;51.362;7.370;2023-07-08T06:27:09;0.50;;;0.50;;
12884;SDS011;6510;51.362;7.370;2023-07-08T06:29:35;0.75;;;0.75;;
12884;SDS011;6510;51.362;7.370;2023-07-08T06:32:01;0.65;;;0.65;;
12884;SDS011;6510;51.362;7.370;2023-07-08T06:34:27;0.70;;;0.70;;
12884;SDS011;6510;51.362;7.370;2023-07-08T06:36:53;0.60;;;0.60;;
12884;SDS011;6510;51.362;7.370;2023-07-08T06:39:18;0.65;;;0.65;;
12884;SDS011;6510;51.362;7.370;2023-07-08T06:41:44;0.60;;;0.60;;
12884;SDS011;6510;51.362;7.370;2023-07-08T06:44:10;0.47;;;0.47;;
12884;SDS011;6510;51.362;7.370;2023-07-08T06:46:36;0.60;;;0.60;;
12884;SDS011;6510;51.362;7.370;2023-07-08T06:49:01;0.50;;;0.50;;
12884;SDS011;6510;51.362;7.370;2023-07-08T06:51:27;0.60;;;0.60;;
12884;SDS011;6510;51.362;7.370;2023-07-08T06:53:53;0.50;;;0.50;;
12884;SDS011;6510;51.362;7.370;2023-07-08T06:56:19;0.40;;;0.40;;
12884;SDS011;6510;51.362;7.370;2023-07-08T06:58:45;0.70;;;0.70;;
12884;SDS011;6510;51.362;7.370;2023-07-08T07:01:11;0.90;;;0.90;;
12884;SDS011;6510;51.362;7.370;2023-07-08T07:03:37;0.65;;;0.65;;
12884;SDS011;6510;51.362;7.370;2023-07-08T07:06:02;0.80;;;0.80;;
12884;SDS011;6510;51.362;7.370;2023-07-08T07:08:28;0.77;;;0.77;;
12884;SDS011;6510;51.362;7.370;2023-07-08T07:10:54;0.75;;;0.75;;
12884;SDS011;6510;51.362;7.370;2023-07-08T07:13:19;0.68;;;0.68;;
12884;SDS011;6510;51.362;7.370;2023-07-08T07:15:47;0.65;;;0.65;;
12884;SDS011;6510;51.362;7.370;2023-07-08T07:18:14;0.70;;;0.70;;
12884;SDS011;6510;51.362;7.370;2023-07-08T07:20:46;0.70;;;0.70;;
12884;SDS011;6510;51.362;7.370;2023-07-08T07:23:15;0.70;;;0.70;;
12884;SDS011;6510;51.362;7.370;2023-07-08T07:25:41;0.70;;;0.70;;
12884;SDS011;6510;51.362;7.370;2023-07-08T07:28:06;0.60;;;0.60;;
12884;SDS011;6510;51.362;7.370;2023-07-08T07:30:32;0.60;;;0.60;;
12884;SDS011;6510;51.362;7.370;2023-07-08T07:32:59;0.70;;;0.70;;
12884;SDS011;6510;51.362;7.370;2023-07-08T07:35:25;0.52;;;0.52;;
12884;SDS011;6510;51.362;7.370;2023-07-08T07:37:51;0.60;;;0.60;;
12884;SDS011;6510;51.362;7.370;2023-07-08T07:40:16;0.77;;;0.77;;
12884;SDS011;6510;51.362;7.370;2023-07-08T07:42:42;0.77;;;0.77;;
12884;SDS011;6510;51.362;7.370;2023-07-08T07:45:10;0.60;;;0.60;;
12884;SDS011;6510;51.362;7.370;2023-07-08T07:47:36;0.90;;;0.90;;
12884;SDS011;6510;51.362;7.370;2023-07-08T07:50:03;0.73;;;0.73;;
12884;SDS011;6510;51.362;7.370;2023-07-08T07:52:30;0.80;;;0.80;;
12884;SDS011;6510;51.362;7.370;2023-07-08T07:54:56;0.60;;;0.60;;
12884;SDS011;6510;51.362;7.370;2023-07-08T07:57:22;0.70;;;0.70;;
12884;SDS011;6510;51.362;7.370;2023-07-08T07:59:48;0.80;;;0.80;;
12884;SDS011;6510;51.362;7.370;2023-07-08T08:02:14;0.85;;;0.85;;
12884;SDS011;6510;51.362;7.370;2023-07-08T08:04:40;0.80;;;0.80;;
12884;SDS011;6510;51.362;7.370;2023-07-08T08:07:06;0.88;;;0.88;;
12884;SDS011;6510;51.362;7.370;2023-07-08T08:09:32;0.80;;;0.80;;
12884;SDS011;6510;51.362;7.370;2023-07-08T08:11:57;0.70;;;0.70;;
12884;SDS011;6510;51.362;7.370;2023-07-08T08:14:23;0.73;;;0.73;;
12884;SDS011;6510;51.362;7.370;2023-07-08T08:16:55;0.70;;;0.70;;
12884;SDS011;6510;51.362;7.370;2023-07-08T08:19:21;0.60;;;0.60;;
12884;SDS011;6510;51.362;7.370;2023-07-08T08:21:47;0.55;;;0.55;;
12884;SDS011;6510;51.362;7.370;2023-07-08T08:24:13;0.70;;;0.70;;
12884;SDS011;6510;51.362;7.370;2023-07-08T08:26:39;0.70;;;0.70;;
12884;SDS011;6510;51.362;7.370;2023-07-08T08:29:11;0.57;;;0.57;;
12884;SDS011;6510;51.362;7.370;2023-07-08T08:32:18;0.60;;;0.60;;
12884;SDS011;6510;51.362;7.370;2023-07-08T08:34:44;0.70;;;0.70;;
12884;SDS011;6510;51.362;7.370;2023-07-08T08:37:10;0.70;;;0.70;;
12884;SDS011;6510;51.362;7.370;2023-07-08T08:39:35;0.98;;;0.98;;
12884;SDS011;6510;51.362;7.370;2023-07-08T08:42:01;0.77;;;0.77;;
12884;SDS011;6510;51.362;7.370;2023-07-08T08:44:28;0.70;;;0.70;;
12884;SDS011;6510;51.362;7.370;2023-07-08T08:49:37;0.70;;;0.70;;
12884;SDS011;6510;51.362;7.370;2023-07-08T08:52:07;0.68;;;0.68;;
12884;SDS011;6510;51.362;7.370;2023-07-08T08:54:33;0.60;;;0.60;;
12884;SDS011;6510;51.362;7.370;2023-07-08T08:57:01;0.50;;;0.50;;
12884;SDS011;6510;51.362;7.370;2023-07-08T09:05:07;0.90;;;0.90;;
12884;SDS011;6510;51.362;7.370;2023-07-08T09:07:42;0.60;;;0.60;;
12884;SDS011;6510;51.362;7.370;2023-07-08T09:10:23;0.70;;;0.70;;
12884;SDS011;6510;51.362;7.370;2023-07-08T09:13:00;0.70;;;0.70;;
12884;SDS011;6510;51.362;7.370;2023-07-08T09:15:29;0.60;;;0.60;;
12884;SDS011;6510;51.362;7.370;2023-07-08T09:18:01;0.60;;;0.60;;
12884;SDS011;6510;51.362;7.370;2023-07-08T09:20:44;0.70;;;0.70;;
12884;SDS011;6510;51.362;7.370;2023-07-08T09:25:49;0.50;;;0.50;;
12884;SDS011;6510;51.362;7.370;2023-07-08T09:28:16;0.40;;;0.40;;
12884;SDS011;6510;51.362;7.370;2023-07-08T09:30:42;0.40;;;0.40;;
12884;SDS011;6510;51.362;7.370;2023-07-08T09:33:12;0.50;;;0.50;;
12884;SDS011;6510;51.362;7.370;2023-07-08T09:35:40;0.60;;;0.60;;
12884;SDS011;6510;51.362;7.370;2023-07-08T09:38:09;0.43;;;0.43;;
12884;SDS011;6510;51.362;7.370;2023-07-08T09:40:38;0.60;;;0.60;;
12884;SDS011;6510;51.362;7.370;2023-07-08T09:45:55;0.80;;;0.80;;
12884;SDS011;6510;51.362;7.370;2023-07-08T09:48:25;0.90;;;0.90;;
12884;SDS011;6510;51.362;7.370;2023-07-08T09:50:53;1.00;;;1.00;;
12884;SDS011;6510;51.362;7.370;2023-07-08T09:53:20;0.70;;;0.70;;
12884;SDS011;6510;51.362;7.370;2023-07-08T09:55:46;0.80;;;0.80;;
12884;SDS011;6510;51.362;7.370;2023-07-08T09:58:13;0.90;;;0.90;;
12884;SDS011;6510;51.362;7.370;2023-07-08T10:00:49;0.80;;;0.80;;
12884;SDS011;6510;51.362;7.370;2023-07-08T10:03:22;0.80;;;0.80;;
12884;SDS011;6510;51.362;7.370;2023-07-08T10:05:54;0.70;;;0.70;;
12884;SDS011;6510;51.362;7.370;2023-07-08T10:08:28;0.90;;;0.90;;
12884;SDS011;6510;51.362;7.370;2023-07-08T10:14:11;1.00;;;1.00;;
12884;SDS011;6510;51.362;7.370;2023-07-08T10:16:50;0.95;;;0.95;;
12884;SDS011;6510;51.362;7.370;2023-07-08T10:19:17;0.95;;;0.95;;
12884;SDS011;6510;51.362;7.370;2023-07-08T10:21:51;1.00;;;1.00;;
12884;SDS011;6510;51.362;7.370;2023-07-08T10:24:36;1.00;;;1.00;;
12884;SDS011;6510;51.362;7.370;2023-07-08T10:32:28;1.00;;;1.00;;
12884;SDS011;6510;51.362;7.370;2023-07-08T10:35:14;0.90;;;0.90;;
12884;SDS011;6510;51.362;7.370;2023-07-08T10:40:17;0.90;;;0.90;;
12884;SDS011;6510;51.362;7.370;2023-07-08T10:43:11;0.82;;;0.82;;
12884;SDS011;6510;51.362;7.370;2023-07-08T10:45:45;0.73;;;0.73;;
12884;SDS011;6510;51.362;7.370;2023-07-08T10:56:20;0.93;;;0.93;;
12884;SDS011;6510;51.362;7.370;2023-07-08T11:09:33;0.95;;;0.95;;
12884;SDS011;6510;51.362;7.370;2023-07-08T11:14:49;0.90;;;0.90;;
12884;SDS011;6510;51.362;7.370;2023-07-08T11:17:21;0.93;;;0.93;;
12884;SDS011;6510;51.362;7.370;2023-07-08T11:20:10;1.00;;;1.00;;
12884;SDS011;6510;51.362;7.370;2023-07-08T11:22:47;1.20;;;1.20;;
12884;SDS011;6510;51.362;7.370;2023-07-08T11:25:18;0.98;;;0.98;;
12884;SDS011;6510;51.362;7.370;2023-07-08T11:27:46;1.00;;;1.00;;
12884;SDS011;6510;51.362;7.370;2023-07-08T11:30:16;0.80;;;0.80;;
12884;SDS011;6510;51.362;7.370;2023-07-08T11:32:46;1.00;;;1.00;;
12884;SDS011;6510;51.362;7.370;2023-07-08T11:35:19;0.93;;;0.93;;
12884;SDS011;6510;51.362;7.370;2023-07-08T11:37:58;1.00;;;1.00;;
12884;SDS011;6510;51.362;7.370;2023-07-08T11:40:37;1.08;;;1.08;;
12884;SDS011;6510;51.362;7.370;2023-07-08T11:43:15;0.95;;;0.95;;
12884;SDS011;6510;51.362;7.370;2023-07-08T11:45:41;1.00;;;1.00;;
12884;SDS011;6510;51.362;7.370;2023-07-08T11:48:19;0.88;;;0.88;;
12884;SDS011;6510;51.362;7.370;2023-07-08T11:50:48;0.90;;;0.90;;
12884;SDS011;6510;51.362;7.370;2023-07-08T11:55:58;1.10;;;1.10;;
12884;SDS011;6510;51.362;7.370;2023-07-08T12:03:35;1.02;;;1.02;;
12884;SDS011;6510;51.362;7.370;2023-07-08T12:06:32;1.10;;;1.10;;
12884;SDS011;6510;51.362;7.370;2023-07-08T12:08:56;0.90;;;0.90;;
12884;SDS011;6510;51.362;7.370;2023-07-08T12:11:31;1.00;;;1.00;;
12884;SDS011;6510;51.362;7.370;2023-07-08T12:13:58;1.10;;;1.10;;
12884;SDS011;6510;51.362;7.370;2023-07-08T12:16:26;0.98;;;0.98;;
12884;SDS011;6510;51.362;7.370;2023-07-08T12:18:53;0.90;;;0.90;;
12884;SDS011;6510;51.362;7.370;2023-07-08T12:21:21;1.00;;;1.00;;
12884;SDS011;6510;51.362;7.370;2023-07-08T12:23:51;0.90;;;0.90;;
12884;SDS011;6510;51.362;7.370;2023-07-08T12:26:17;0.90;;;0.90;;
12884;SDS011;6510;51.362;7.370;2023-07-08T12:28:42;1.00;;;1.00;;
12884;SDS011;6510;51.362;7.370;2023-07-08T12:31:13;1.15;;;1.15;;
12884;SDS011;6510;51.362;7.370;2023-07-08T12:33:43;1.00;;;1.00;;
12884;SDS011;6510;51.362;7.370;2023-07-08T12:36:18;1.05;;;1.05;;
12884;SDS011;6510;51.362;7.370;2023-07-08T12:38:46;1.20;;;1.20;;
12884;SDS011;6510;51.362;7.370;2023-07-08T12:41:16;1.17;;;1.17;;
12884;SDS011;6510;51.362;7.370;2023-07-08T12:43:44;1.10;;;1.10;;
12884;SDS011;6510;51.362;7.370;2023-07-08T12:46:11;1.00;;;1.00;;
12884;SDS011;6510;51.362;7.370;2023-07-08T12:48:38;1.00;;;1.00;;
12884;SDS011;6510;51.362;7.370;2023-07-08T12:51:05;1.00;;;1.00;;
12884;SDS011;6510;51.362;7.370;2023-07-08T12:53:35;0.90;;;0.90;;
12884;SDS011;6510;51.362;7.370;2023-07-08T12:56:01;1.00;;;1.00;;
12884;SDS011;6510;51.362;7.370;2023-07-08T12:58:31;1.10;;;1.10;;
12884;SDS011;6510;51.362;7.370;2023-07-08T13:01:00;1.02;;;1.02;;
12884;SDS011;6510;51.362;7.370;2023-07-08T13:03:31;1.10;;;1.10;;
12884;SDS011;6510;51.362;7.370;2023-07-08T13:06:05;1.00;;;1.00;;
12884;SDS011;6510;51.362;7.370;2023-07-08T13:08:34;1.00;;;1.00;;
12884;SDS011;6510;51.362;7.370;2023-07-08T13:11:02;0.95;;;0.95;;
12884;SDS011;6510;51.362;7.370;2023-07-08T13:13:32;1.00;;;1.00;;
12884;SDS011;6510;51.362;7.370;2023-07-08T13:16:02;0.88;;;0.88;;
12884;SDS011;6510;51.362;7.370;2023-07-08T13:18:31;1.00;;;1.00;;
12884;SDS011;6510;51.362;7.370;2023-07-08T13:21:02;0.80;;;0.80;;
12884;SDS011;6510;51.362;7.370;2023-07-08T13:23:29;0.85;;;0.85;;
12884;SDS011;6510;51.362;7.370;2023-07-08T13:25:56;0.98;;;0.98;;
12884;SDS011;6510;51.362;7.370;2023-07-08T13:28:23;0.85;;;0.85;;
12884;SDS011;6510;51.362;7.370;2023-07-08T13:33:21;1.10;;;1.10;;
12884;SDS011;6510;51.362;7.370;2023-07-08T13:35:46;1.10;;;1.10;;
12884;SDS011;6510;51.362;7.370;2023-07-08T13:38:17;1.08;;;1.08;;
12884;SDS011;6510;51.362;7.370;2023-07-08T13:40:46;1.00;;;1.00;;
12884;SDS011;6510;51.362;7.370;2023-07-08T13:43:14;0.70;;;0.70;;
12884;SDS011;6510;51.362;7.370;2023-07-08T13:45:43;0.73;;;0.73;;
12884;SDS011;6510;51.362;7.370;2023-07-08T13:48:27;0.80;;;0.80;;
12884;SDS011;6510;51.362;7.370;2023-07-08T13:50:55;0.80;;;0.80;;
12884;SDS011;6510;51.362;7.370;2023-07-08T13:56:21;0.63;;;0.63;;
12884;SDS011;6510;51.362;7.370;2023-07-08T13:58:51;0.88;;;0.88;;
12884;SDS011;6510;51.362;7.370;2023-07-08T14:01:25;0.95;;;0.95;;
12884;SDS011;6510;51.362;7.370;2023-07-08T14:03:51;0.80;;;0.80;;
12884;SDS011;6510;51.362;7.370;2023-07-08T14:06:20;0.88;;;0.88;;
12884;SDS011;6510;51.362;7.370;2023-07-08T14:08:50;0.80;;;0.80;;
12884;SDS011;6510;51.362;7.370;2023-07-08T14:11:19;0.80;;;0.80;;
12884;SDS011;6510;51.362;7.370;2023-07-08T14:13:44;0.60;;;0.60;;
12884;SDS011;6510;51.362;7.370;2023-07-08T14:16:17;0.70;;;0.70;;
12884;SDS011;6510;51.362;7.370;2023-07-08T14:18:50;0.70;;;0.70;;
12884;SDS011;6510;51.362;7.370;2023-07-08T14:21:16;0.70;;;0.70;;
12884;SDS011;6510;51.362;7.370;2023-07-08T14:23:43;0.68;;;0.68;;
12884;SDS011;6510;51.362;7.370;2023-07-08T14:26:12;0.60;;;0.60;;
12884;SDS011;6510;51.362;7.370;2023-07-08T14:28:38;0.50;;;0.50;;
12884;SDS011;6510;51.362;7.370;2023-07-08T14:31:04;0.50;;;0.50;;
12884;SDS011;6510;51.362;7.370;2023-07-08T14:33:37;0.60;;;0.60;;
12884;SDS011;6510;51.362;7.370;2023-07-08T14:36:10;0.70;;;0.70;;
12884;SDS011;6510;51.362;7.370;2023-07-08T14:38:36;0.50;;;0.50;;
12884;SDS011;6510;51.362;7.370;2023-07-08T14:41:01;0.60;;;0.60;;
12884;SDS011;6510;51.362;7.370;2023-07-08T14:43:28;0.70;;;0.70;;
12884;SDS011;6510;51.362;7.370;2023-07-08T14:46:01;0.70;;;0.70;;
12884;SDS011;6510;51.362;7.370;2023-07-08T14:48:28;0.60;;;0.60;;
12884;SDS011;6510;51.362;7.370;2023-07-08T14:50:55;0.80;;;0.80;;
12884;SDS011;6510;51.362;7.370;2023-07-08T14:53:21;0.68;;;0.68;;
12884;SDS011;6510;51.362;7.370;2023-07-08T14:55:48;0.40;;;0.40;;
12884;SDS011;6510;51.362;7.370;2023-07-08T15:00:50;0.60;;;0.60;;
12884;SDS011;6510;51.362;7.370;2023-07-08T15:03:16;0.80;;;0.80;;
12884;SDS011;6510;51.362;7.370;2023-07-08T15:05:43;0.70;;;0.70;;
12884;SDS011;6510;51.362;7.370;2023-07-08T15:08:09;0.65;;;0.65;;
12884;SDS011;6510;51.362;7.370;2023-07-08T15:10:35;0.80;;;0.80;;
12884;SDS011;6510;51.362;7.370;2023-07-08T15:13:03;0.80;;;0.80;;
12884;SDS011;6510;51.362;7.370;2023-07-08T15:15:31;0.63;;;0.63;;
12884;SDS011;6510;51.362;7.370;2023-07-08T15:18:00;0.70;;;0.70;;
12884;SDS011;6510;51.362;7.370;2023-07-08T15:20:31;0.60;;;0.60;;
12884;SDS011;6510;51.362;7.370;2023-07-08T15:22:57;0.60;;;0.60;;
12884;SDS011;6510;51.362;7.370;2023-07-08T15:25:23;0.70;;;0.70;;
12884;SDS011;6510;51.362;7.370;2023-07-08T15:27:51;0.70;;;0.70;;
12884;SDS011;6510;51.362;7.370;2023-07-08T15:30:22;0.70;;;0.70;;
12884;SDS011;6510;51.362;7.370;2023-07-08T15:32:49;0.77;;;0.77;;
12884;SDS011;6510;51.362;7.370;2023-07-08T15:35:17;0.60;;;0.60;;
12884;SDS011;6510;51.362;7.370;2023-07-08T15:37:45;0.75;;;0.75;;
12884;SDS011;6510;51.362;7.370;2023-07-08T15:40:15;0.70;;;0.70;;
12884;SDS011;6510;51.362;7.370;2023-07-08T15:42:45;0.70;;;0.70;;
12884;SDS011;6510;51.362;7.370;2023-07-08T15:47:40;0.60;;;0.60;;
12884;SDS011;6510;51.362;7.370;2023-07-08T15:50:10;0.52;;;0.52;;
12884;SDS011;6510;51.362;7.370;2023-07-08T15:52:37;0.50;;;0.50;;
12884;SDS011;6510;51.362;7.370;2023-07-08T15:55:03;0.50;;;0.50;;
12884;SDS011;6510;51.362;7.370;2023-07-08T15:57:29;0.60;;;0.60;;
12884;SDS011;6510;51.362;7.370;2023-07-08T15:59:55;0.50;;;0.50;;
12884;SDS011;6510;51.362;7.370;2023-07-08T16:02:24;0.52;;;0.52;;
12884;SDS011;6510;51.362;7.370;2023-07-08T16:04:52;0.60;;;0.60;;
12884;SDS011;6510;51.362;7.370;2023-07-08T16:07:18;0.47;;;0.47;;
12884;SDS011;6510;51.362;7.370;2023-07-08T16:09:43;0.50;;;0.50;;
12884;SDS011;6510;51.362;7.370;2023-07-08T16:12:10;0.50;;;0.50;;
12884;SDS011;6510;51.362;7.370;2023-07-08T16:14:41;0.52;;;0.52;;
12884;SDS011;6510;51.362;7.370;2023-07-08T16:17:09;0.52;;;0.52;;
12884;SDS011;6510;51.362;7.370;2023-07-08T16:19:36;0.47;;;0.47;;